Latest Weather Observations for Camden

IDN60801

Issued at 3:13 am EDT Friday 29 January 2021 (issued every 10 minutes, with the page automatically refreshed every 10 minutes)

About weather observations | Map of weather stations | Latest weather observations for NSW | Other Formats
Station Details ID: 068192 Name: CAMDEN AIRPORT AWS Lat: -34.04 Lon: 150.69 Height: 73.9 m
Data from the previous 72 hours. | See also: Recent months at Camden
Date/Time
EDT
Temp
°C
App
Temp
°C
Dew
Point
°C
Rel
Hum
%
Delta-T
°C
Wind Press
QNH
hPa
Press
MSL
hPa
Rain since
9am
mm
Dir  Spd
km/h
Gust
km/h
Spd
kts
Gust
kts
29/03:00am 18.0 20.7 17.7 98 0.2 CALM 0 0 0 0 1019.2 1018.8 1.2
29/02:46am 17.9 20.6 17.7 99 0.1 CALM 0 0 0 0 1019.4 1019.1 1.2
29/02:30am 17.8 20.4 17.6 99 0.1 CALM 0 0 0 0 1019.4 1019.1 1.2
29/02:00am 17.6 19.0 17.4 99 0.1 SSW 6 9 3 5 1019.7 1019.4 1.2
29/01:30am 17.4 18.5 17.2 99 0.1 SW 7 9 4 5 1020.0 1019.7 1.2
29/01:00am 17.4 18.2 17.2 99 0.1 WSW 9 13 5 7 1020.3 1020.0 1.2
29/12:30am 17.4 18.2 17.2 99 0.1 SW 9 13 5 7 1020.3 1020.0 1.2
29/12:04am 17.4 18.7 17.1 98 0.2 WSW 6 11 3 6 1020.6 1020.3 1.0
29/12:00am 17.4 19.4 16.9 97 0.3 WSW 2 11 1 6 1020.6 1020.3 1.0
 
Date/Time
EDT
Temp
°C
App
Temp
°C
Dew
Point
°C
Rel
Hum
%
Delta-T
°C
Wind Press
QNH
hPa
Press
MSL
hPa
Rain since
9am
mm
Dir  Spd
km/h
Gust
km/h
Spd
kts
Gust
kts
28/11:35pm 17.6 19.0 16.3 92 0.8 NE 4 9 2 5 1021.2 1020.9 0.4
28/11:30pm 17.6 18.5 16.1 91 0.9 E 6 9 3 5 1021.1 1020.8 0.2
28/11:00pm 17.8 18.0 15.8 88 1.2 SSW 9 13 5 7 1021.2 1020.9 0.2
28/10:30pm 17.8 17.6 15.8 88 1.2 S 11 17 6 9 1021.5 1021.2 0.2
28/10:00pm 17.8 18.2 16.3 91 0.9 SSW 9 13 5 7 1021.6 1021.3 0.0
28/09:30pm 17.8 18.7 16.7 93 0.7 SSW 7 11 4 6 1021.5 1021.2 0.0
28/09:00pm 18.2 18.3 16.4 89 1.1 SSW 11 15 6 8 1021.6 1021.3 0.0
28/08:34pm 18.3 18.7 16.3 88 1.2 S 9 13 5 7 1021.4 1021.1 0.0
28/08:30pm 18.3 18.7 16.3 88 1.2 SSW 9 13 5 7 1021.4 1021.1 0.0
28/08:00pm 18.5 19.5 16.3 87 1.3 S 6 7 3 4 1021.3 1021.0 0.0
28/07:47pm 18.4 19.1 16.0 86 1.4 S 7 11 4 6 1021.2 1020.9 0.0
28/07:30pm 18.4 17.8 15.6 84 1.7 SSE 13 20 7 11 1021.0 1020.7 0.0
28/07:00pm 20.2 19.0 14.1 68 3.5 SSE 13 22 7 12 1020.5 1020.2 0.0
28/06:30pm 20.3 19.2 14.2 68 3.5 S 13 20 7 11 1020.3 1020.0 0.0
28/06:00pm 20.5 19.3 13.9 66 3.8 SE 13 19 7 10 1020.4 1020.1 0.0
28/05:30pm 20.7 18.4 12.9 61 4.4 SSE 17 24 9 13 1020.5 1020.2 0.0
28/05:00pm 21.2 18.9 13.1 60 4.6 SSE 17 24 9 13 1020.5 1020.2 0.0
28/04:30pm 21.3 18.7 13.2 60 4.7 SSE 19 26 10 14 1020.7 1020.4 0.0
28/04:00pm 21.6 19.1 13.5 60 4.7 SSE 19 24 10 13 1020.8 1020.5 0.0
28/03:30pm 21.3 18.8 14.0 63 4.3 SE 20 30 11 16 1020.9 1020.6 0.0
28/03:00pm 20.8 19.0 14.5 67 3.7 S 17 24 9 13 1021.0 1020.7 0.0
28/02:30pm 20.9 19.4 14.1 65 4.0 SE 15 28 8 15 1021.4 1021.1 0.0
28/02:00pm 22.1 19.3 12.6 55 5.4 SSE 19 26 10 14 1021.3 1021.0 0.0
28/01:30pm 22.6 20.4 13.4 56 5.3 SE 17 30 9 16 1021.3 1021.0 0.0
28/01:00pm 22.3 19.9 12.8 55 5.4 SE 17 24 9 13 1021.7 1021.4 0.0
28/12:30pm 21.9 19.2 13.5 59 4.9 SE 20 32 11 17 1021.8 1021.5 0.0
28/12:00pm 21.2 19.3 14.1 64 4.1 SE 17 30 9 16 1021.9 1021.6 0.0
28/11:30am 21.9 19.5 14.5 63 4.4 SE 20 33 11 18 1021.8 1021.5 0.0
28/11:00am 21.6 19.0 13.8 61 4.5 SSE 20 28 11 15 1021.9 1021.6 0.0
28/10:30am 21.6 20.5 15.2 67 3.8 SE 15 26 8 14 1021.6 1021.3 0.0
28/10:00am 21.2 20.7 16.0 72 3.1 SE 13 24 7 13 1021.6 1021.3 0.0
28/09:30am 20.6 19.8 16.0 75 2.8 SSE 15 22 8 12 1021.3 1021.0 0.0
28/09:00am 20.1 20.2 16.5 80 2.2 SSE 11 15 6 8 1021.1 1020.8 7.0
28/08:41am 19.9 21.3 17.3 85 1.6 SSW 6 9 3 5 1021.1 1020.8 7.0
28/08:30am 19.6 21.7 17.2 86 1.5 S 2 9 1 5 1021.1 1020.8 7.0
28/08:00am 19.3 21.5 17.4 89 1.2 SW 2 7 1 4 1020.9 1020.6 7.0
28/07:30am 18.7 21.6 18.2 97 0.3 CALM 0 0 0 0 1020.4 1020.1 7.0
28/07:00am 18.4 21.3 18.2 99 0.1 CALM 0 0 0 0 1020.2 1019.9 7.0
28/06:30am 18.3 21.2 18.1 99 0.1 CALM 0 0 0 0 1020.0 1019.7 7.0
28/06:00am 18.3 20.4 18.0 98 0.2 WNW 4 7 2 4 1019.7 1019.4 7.0
28/05:36am 18.4 20.1 18.1 98 0.2 WSW 6 9 3 5 1019.5 1019.2 7.0
28/05:30am 18.3 19.9 17.8 97 0.3 SW 6 9 3 5 1019.3 1018.9 7.0
28/05:00am 18.5 20.0 17.7 95 0.5 S 6 9 3 5 1018.8 1018.4 6.2
28/04:57am 18.4 20.4 17.8 96 0.4 SSE 4 9 2 5 1018.8 1018.4 6.2
28/04:30am 18.4 20.2 18.2 99 0.1 SW 6 9 3 5 1018.6 1018.2 6.2
28/04:00am 18.4 20.0 18.2 99 0.1 WSW 7 11 4 6 1018.7 1018.3 6.2
28/03:30am 18.4 20.0 18.2 99 0.1 WSW 7 9 4 5 1018.6 1018.2 6.2
28/03:00am 18.4 21.3 18.2 99 0.1 CALM 0 0 0 0 1018.9 1018.5 6.2
28/02:30am 18.4 20.9 18.2 99 0.1 SSW 2 9 1 5 1019.0 1018.6 6.2
28/02:00am 18.4 20.0 18.2 99 0.1 SW 7 9 4 5 1019.1 1018.7 6.0
28/01:30am 18.5 21.4 18.3 99 0.1 CALM 0 0 0 0 1019.0 1018.6 6.0
28/01:00am 18.5 21.4 18.3 99 0.1 CALM 0 0 0 0 1019.0 1018.6 6.0
28/12:51am 18.5 21.4 18.3 99 0.1 CALM 0 0 0 0 1019.0 1018.6 6.0
28/12:30am 18.4 21.3 18.2 99 0.1 CALM 0 0 0 0 1019.1 1018.7 6.0
28/12:00am 18.3 21.2 18.1 99 0.1 CALM 0 0 0 0 1019.2 1018.8 6.0
 
Date/Time
EDT
Temp
°C
App
Temp
°C
Dew
Point
°C
Rel
Hum
%
Delta-T
°C
Wind Press
QNH
hPa
Press
MSL
hPa
Rain since
9am
mm
Dir  Spd
km/h
Gust
km/h
Spd
kts
Gust
kts
27/11:30pm 18.2 20.3 18.0 99 0.1 SSE 4 7 2 4 1019.2 1018.8 5.8
27/11:00pm 18.2 19.9 18.0 99 0.1 WSW 6 9 3 5 1019.1 1018.7 5.6
27/10:34pm 18.1 19.7 17.9 99 0.1 SW 6 9 3 5 1019.2 1018.8 5.4
27/10:30pm 18.0 19.6 17.8 99 0.1 SSW 6 9 3 5 1019.2 1018.8 5.4
27/10:09pm 18.0 19.0 17.8 99 0.1 SSW 9 13 5 7 1019.2 1018.8 5.2
27/10:00pm 18.1 18.7 17.8 98 0.2 SSW 11 15 6 8 1019.1 1018.7 5.0
27/09:59pm 18.1 18.7 17.8 98 0.2 SSW 11 15 6 8 1019.0 1018.6 5.0
27/09:30pm 18.5 19.6 18.0 97 0.3 SW 9 13 5 7 1018.7 1018.3 4.8
27/09:00pm 18.4 20.0 18.2 99 0.1 SW 7 9 4 5 1018.3 1017.9 4.8
27/08:30pm 18.2 19.7 18.0 99 0.1 SW 7 11 4 6 1018.0 1017.6 4.8
27/08:00pm 18.1 18.8 17.9 99 0.1 SSW 11 15 6 8 1017.6 1017.2 4.8
27/07:30pm 18.1 19.2 17.9 99 0.1 SW 9 13 5 7 1017.2 1016.8 4.8
27/07:00pm 18.2 18.9 17.9 98 0.2 SW 11 15 6 8 1016.9 1016.5 4.2
27/06:30pm 18.6 19.2 17.6 94 0.6 WSW 11 13 6 7 1016.3 1015.9 2.2
27/06:16pm 18.7 19.9 17.4 92 0.8 SW 7 13 4 7 1016.2 1015.8 1.8
27/06:03pm 18.7 18.9 16.7 88 1.2 SSW 11 13 6 7 1016.1 1015.7 1.4
27/06:00pm 18.9 19.1 16.7 87 1.3 SSW 11 13 6 7 1016.0 1015.6 1.2
27/05:30pm 19.5 19.4 16.0 80 2.1 S 11 17 6 9 1015.9 1015.5 0.0
27/05:00pm 20.0 18.6 15.6 76 2.6 S 17 26 9 14 1015.6 1015.2 0.0
27/04:30pm 20.8 18.8 15.4 71 3.2 S 20 32 11 17 1015.5 1015.1 0.0
27/04:00pm 21.1 19.6 15.4 70 3.4 S 17 24 9 13 1015.3 1015.0 0.0
27/03:30pm 21.4 19.4 15.5 69 3.5 SSE 20 32 11 17 1015.1 1014.8 0.0
27/03:00pm 21.6 20.9 15.4 68 3.7 S 13 17 7 9 1015.1 1014.8 0.0
27/02:30pm 21.9 20.7 16.0 69 3.6 SSE 17 33 9 18 1015.0 1014.7 0.0
27/02:00pm 21.7 19.6 16.2 71 3.3 SSE 22 33 12 18 1014.8 1014.5 0.0
27/01:30pm 21.6 20.1 16.3 72 3.2 SSE 19 26 10 14 1014.5 1014.2 0.0
27/01:00pm 22.0 19.3 16.5 71 3.3 SSE 26 41 14 22 1014.2 1013.9 0.0
27/12:30pm 22.4 20.8 16.4 69 3.7 SSE 20 30 11 16 1014.1 1013.8 0.0
27/12:00pm 22.6 21.2 16.9 70 3.5 SSE 20 33 11 18 1014.2 1013.9 0.0
27/11:30am 22.5 21.1 17.0 71 3.4 SSE 20 32 11 17 1013.9 1013.6 0.0
27/11:00am 22.1 20.6 16.8 72 3.2 S 20 30 11 16 1013.7 1013.4 0.0
27/10:30am 22.1 20.8 16.8 72 3.2 SSE 19 28 10 15 1013.2 1012.9 0.0
27/10:00am 22.2 21.8 17.1 73 3.1 SSE 15 20 8 11 1012.9 1012.6 0.0
27/09:30am 22.1 20.9 17.0 73 3.1 SSE 19 24 10 13 1012.6 1012.3 0.0
27/09:00am 22.1 20.6 16.8 72 3.2 SSE 20 35 11 19 1012.2 1011.9 0.2
27/08:30am 22.2 20.9 16.9 72 3.3 SSE 19 28 10 15 1011.8 1011.5 0.2
27/08:00am 22.1 21.9 16.8 72 3.2 S 13 22 7 12 1011.4 1011.1 0.2
27/07:30am 22.1 22.0 17.0 73 3.1 S 13 19 7 10 1010.8 1010.5 0.2
27/07:00am 22.0 21.6 17.2 74 3.0 S 15 20 8 11 1010.2 1009.9 0.2
27/06:30am 22.0 20.9 17.4 75 2.8 S 19 28 10 15 1009.5 1009.2 0.2
27/06:00am 22.1 21.6 17.7 76 2.7 S 17 26 9 14 1009.0 1008.7 0.2
27/05:58am 22.1 21.6 17.7 76 2.7 SSE 17 26 9 14 1009.0 1008.7 0.2
27/05:30am 22.4 22.1 18.2 77 2.6 SSE 17 30 9 16 1008.3 1008.0 0.2
27/05:00am 22.9 23.8 19.3 80 2.3 SSE 13 24 7 13 1007.7 1007.4 0.2
27/04:30am 23.2 24.4 20.0 82 2.1 SSE 13 20 7 11 1007.3 1006.9 0.2
27/04:00am 23.4 24.4 20.2 82 2.1 S 15 22 8 12 1007.1 1006.7 0.2
27/03:30am 23.5 25.2 20.2 82 2.1 S 11 17 6 9 1006.9 1006.5 0.2
27/03:00am 23.5 26.0 20.2 82 2.1 S 7 13 4 7 1006.9 1006.5 0.2
27/02:30am 23.4 25.9 20.2 82 2.1 SSE 7 11 4 6 1006.8 1006.4 0.2
27/02:17am 23.5 26.0 20.2 82 2.1 SSW 7 9 4 5 1006.9 1006.5 0.2
27/02:01am 23.5 25.2 20.2 82 2.1 SSE 11 20 6 11 1006.6 1006.2 0.2
27/02:00am 23.4 25.1 20.2 82 2.1 SSE 11 20 6 11 1006.5 1006.1 0.2
27/01:30am 23.5 25.6 20.2 82 2.1 S 9 13 5 7 1006.5 1006.1 0.2
27/01:21am 23.6 25.4 20.3 82 2.1 S 11 17 6 9 1006.5 1006.1 0.2
27/01:00am 23.7 25.5 20.4 82 2.2 SSW 11 19 6 10 1006.2 1005.8 0.2
27/12:30am 23.8 26.0 20.5 82 2.2 SW 9 13 5 7 1006.3 1005.9 0.2
27/12:00am 23.8 26.0 20.5 82 2.2 SSW 9 11 5 6 1005.5 1005.1 0.2
 
Date/Time
EDT
Temp
°C
App
Temp
°C
Dew
Point
°C
Rel
Hum
%
Delta-T
°C
Wind Press
QNH
hPa
Press
MSL
hPa
Rain since
9am
mm
Dir  Spd
km/h
Gust
km/h
Spd
kts
Gust
kts
26/11:30pm 23.8 26.1 20.7 83 2.0 WSW 9 11 5 6 1005.5 1005.1 0.2
26/11:00pm 23.8 26.5 20.3 81 2.3 S 6 9 3 5 1005.4 1005.0 0.2
26/10:30pm 23.9 25.8 19.8 78 2.6 SSE 9 15 5 8 1005.3 1004.9 0.0
26/10:00pm 24.8 24.9 19.2 71 3.6 S 17 22 9 12 1005.3 1004.9 0.0
26/09:30pm 26.7 26.6 17.8 58 5.6 S 15 20 8 11 1004.6 1004.2 0.0
26/09:00pm 29.2 29.6 16.4 46 8.0 SSW 9 17 5 9 1004.0 1003.6 0.0
26/08:30pm 29.7 28.1 16.1 43 8.5 SW 19 32 10 17 1003.4 1003.0 0.0
26/08:00pm 32.7 31.4 13.8 31 11.5 SW 13 19 7 10 1002.4 1002.0 0.0
26/07:30pm 33.4 32.0 13.5 30 12.1 SW 13 20 7 11 1001.1 1000.8 0.0
26/07:00pm 34.8 33.3 13.0 26 13.3 W 13 17 7 9 1000.3 1000.0 0.0
26/06:30pm 35.6 33.5 12.5 24 13.9 NNW 15 22 8 12 999.7 999.4 0.0
26/06:00pm 36.1 34.4 12.3 24 14.4 NNW 13 20 7 11 999.4 999.1 0.0
26/05:30pm 36.6 35.7 11.4 22 15.0 W 7 11 4 6 999.5 999.2 0.0
26/05:00pm 36.6 35.0 11.4 22 15.1 W 11 15 6 8 999.6 999.3 0.0
26/04:30pm 36.5 33.7 9.9 20 15.5 WNW 15 20 8 11 999.7 999.4 0.0
26/04:00pm 37.6 33.7 10.8 20 16.0 WNW 22 32 12 17 999.6 999.3 0.0
26/03:30pm 38.6 34.9 10.0 18 16.8 WNW 20 33 11 18 999.6 999.3 0.0
26/03:00pm 38.2 33.6 9.7 18 16.8 NW 24 35 13 19 1000.0 999.7 0.0
26/02:30pm 38.9 35.7 11.1 19 16.6 NW 19 32 10 17 999.9 999.6 0.0
26/02:00pm 38.3 35.3 12.1 21 15.9 NNW 19 28 10 15 1000.2 999.9 0.0
26/01:30pm 38.2 34.4 11.3 20 16.1 NW 22 35 12 19 1000.5 1000.2 0.0
26/01:00pm 38.0 34.4 11.9 21 15.8 NW 22 30 12 16 1000.6 1000.3 0.0
26/12:30pm 37.1 33.5 10.4 20 15.7 NW 20 33 11 18 1001.0 1000.7 0.0
26/12:00pm 37.0 32.8 11.1 21 15.5 NW 24 35 13 19 1001.3 1001.0 0.0
26/11:30am 36.6 33.1 12.1 23 14.8 NW 22 35 12 19 1001.5 1001.1 0.0
26/11:00am 34.9 34.5 15.3 31 12.3 NNW 11 17 6 9 1001.9 1001.5 0.0
26/10:30am 32.8 33.2 16.2 37 10.5 N 9 15 5 8 1002.3 1001.9 0.0
26/10:00am 30.2 32.6 18.0 48 7.9 N 2 7 1 4 1002.6 1002.2 0.0
26/09:30am 27.4 29.9 17.3 54 6.4 CALM 0 9 0 5 1002.9 1002.5 0.0
26/09:00am 25.8 28.7 18.2 63 4.8 CALM 0 6 0 3 1003.0 1002.6 0.0
26/08:30am 23.8 26.4 17.5 68 3.9 CALM 0 0 0 0 1003.3 1002.9 0.0
26/08:00am 21.8 23.8 16.1 70 3.5 CALM 0 0 0 0 1003.2 1002.8 0.0
26/07:30am 20.1 22.6 17.3 84 1.7 CALM 0 0 0 0 1002.9 1002.5 0.0
26/07:00am 18.5 21.4 18.2 98 0.2 CALM 0 0 0 0 1002.9 1002.5 0.0
26/06:50am 17.7 20.3 17.5 99 0.1 CALM 0 0 0 0 1002.8 1002.4 0.0
26/06:30am 17.7 20.3 17.4 98 0.2 CALM 0 0 0 0 1002.6 1002.2 0.0
26/06:19am 17.7 20.3 17.4 98 0.2 CALM 0 0 0 0 1002.6 1002.2 0.0
26/06:00am 17.6 19.9 16.8 95 0.5 CALM 0 0 0 0 1002.5 1002.1 0.0
26/05:30am 17.9 20.3 16.9 94 0.6 CALM 0 0 0 0 1002.3 1001.9 0.0
26/05:00am 18.3 20.9 17.5 95 0.5 CALM 0 0 0 0 1002.1 1001.7 0.0
26/04:30am 18.3 20.5 16.6 90 1.0 CALM 0 0 0 0 1002.2 1001.8 0.0
26/04:00am 18.8 21.2 16.9 89 1.2 CALM 0 0 0 0 1002.3 1001.9 0.0
26/03:30am 19.2 21.8 17.5 90 1.0 CALM 0 0 0 0 1002.5 1002.1 0.0

Other formats

Comma delimited format used in spreadsheet applications
http://www.bom.gov.au/fwo/IDN60801/IDN60801.94755.axf

JavaScript Object Notation format (JSON) in row-major order
http://www.bom.gov.au/fwo/IDN60801/IDN60801.94755.json

Data quality

Most of these data are generated automatically and are frequently updated. Quality checks on data are not normally performed. It is possible for incorrect values to appear. Refer to information at About Latest Weather Observations and please check the disclaimer before using these data.